Hlavní strana
METAR-TAF:

METAR-TAF

Letiště :

Kostanay, Kazachstán

zeměpisná šířka: 53-12-23N, zeměpisná délka: 063-33-03E, výška: 182 m

Aktuální stav počasí

Zpráva byla vytvořena před 25 minutami, v 09:30 UTC
Severoseverozápadní vítr 12 kt
Teplota -1°C
Vlhkost vzduchu 74%
Tlak 1025 hPa
Viditelnost 10 km a více
Zataženo ve výšce 2600 ft

METAR: UAUU 180930Z 33006MPS 9999 OVC026 M01/M05 Q1025 R33/420060 NOSIG RMK QFE753/1004

Čas: 15:55 (09:55 UTC)

Předpověď počasí

Zpráva byla vytvořena před 1 hodinou a 55 minutami, v 08:00 UTC
Předpověď platná od 18 v 09 UTC do 18 v 18 UTC
Severozápadní vítr 10 kt
Viditelnost 10 km a více
Oblačno až skoro zataženo ve výšce 2000 ft
Dočasný
od 18 v 09 UTC do 18 v 18 UTC
Oblačno až skoro zataženo ve výšce 1100 ft, Cumulonimbus.

TAF: UAUU 180800Z 1809/1818 32005MPS 9999 BKN020 TEMPO 1809/1818 BKN011CB

Stav a předpovědi počasí z více než 4 000 letišť (zprávy METAR a TAF).

Červené a žluté tečky na mapě představují dostupné meteorologické stanice.

Když kurzor umístíte na tečku, zobrazí se název stanice.

Pak kliknutím zobrazíte stav a předpověď počasí.

Chcete-li změnit mapu, kliknutím na zelené tlačítko se znaménkem +mapu přiblížíte, kliknutím na zelené tlačítko se znaménkem – mapu oddálíte a kliknutím na zelené šipky přejdete na sousední mapy.


METAR-TAF: